Time;durP1;ratioP1;P1;durP2;ratioP2;P2;SDS_P1;SDS_P2;PMS_P1;PMS_P2;Temp;Humidity;BMP_temperature;BMP_pressure;BME280_temperature;BME280_humidity;BME280_pressure;Samples;Min_cycle;Max_cycle;Signal;HPM_P1;HPM_P2
2023/08/11 00:02:25;;;;;;;0.60;0.60;;;;;;;14.84;100.00;98348.09;1220507;75;2922809;-67
2023/08/11 00:04:58;;;;;;;0.70;0.70;;;;;;;14.82;100.00;98350.59;1223290;75;2940077;-67
2023/08/11 00:07:30;;;;;;;0.70;0.70;;;;;;;14.69;100.00;98346.22;1221151;75;2928179;-67
2023/08/11 00:10:04;;;;;;;0.70;0.65;;;;;;;14.76;100.00;98355.28;1223190;75;2926352;-67
2023/08/11 00:12:37;;;;;;;0.90;0.80;;;;;;;14.66;100.00;98349.19;1219719;75;2924352;-70
2023/08/11 00:15:13;;;;;;;1.40;0.80;;;;;;;14.62;100.00;98346.66;1223119;75;2927463;-69
2023/08/11 00:17:47;;;;;;;0.75;0.75;;;;;;;14.62;100.00;98345.88;1221183;75;2923642;-70
2023/08/11 00:20:20;;;;;;;0.70;0.60;;;;;;;14.61;100.00;98341.63;1222995;75;2929068;-67
2023/08/11 00:22:53;;;;;;;1.00;0.60;;;;;;;14.48;100.00;98345.50;1220249;75;2925477;-70
2023/08/11 00:25:26;;;;;;;0.75;0.75;;;;;;;14.58;100.00;98346.13;1223120;75;2927603;-69
2023/08/11 00:27:58;;;;;;;0.85;0.80;;;;;;;14.45;100.00;98338.19;1218118;75;2929697;-69
2023/08/11 00:30:34;;;;;;;1.15;0.95;;;;;;;14.38;100.00;98341.38;1220951;75;2955453;-66
2023/08/11 00:33:07;;;;;;;1.65;1.25;;;;;;;14.06;100.00;98338.50;1220702;75;2922305;-67
2023/08/11 00:35:39;;;;;;;1.35;1.00;;;;;;;14.17;100.00;98334.41;1222520;75;2935926;-69
2023/08/11 00:38:13;;;;;;;0.80;0.80;;;;;;;14.17;100.00;98340.66;1220673;75;2941511;-67
2023/08/11 00:40:46;;;;;;;1.00;0.90;;;;;;;14.13;100.00;98328.34;1222397;75;2924162;-69
2023/08/11 00:43:18;;;;;;;1.10;1.00;;;;;;;14.20;100.00;98338.94;1221837;75;2931475;-67
2023/08/11 00:45:54;;;;;;;0.80;0.80;;;;;;;14.04;100.00;98338.22;1221663;75;2926816;-67
2023/08/11 00:48:26;;;;;;;1.05;0.90;;;;;;;14.13;100.00;98339.34;1220714;75;2923249;-68
2023/08/11 00:50:59;;;;;;;1.05;0.90;;;;;;;14.21;100.00;98338.44;1223103;75;2929951;-67
2023/08/11 00:53:32;;;;;;;1.05;0.95;;;;;;;14.17;100.00;98345.41;1218378;75;2928953;-68
2023/08/11 00:56:07;;;;;;;0.85;0.80;;;;;;;14.11;100.00;98339.81;1222560;75;2919826;-68
2023/08/11 00:58:40;;;;;;;1.00;0.85;;;;;;;14.06;100.00;98341.25;1221640;75;2924437;-69
2023/08/11 01:01:15;;;;;;;1.00;0.70;;;;;;;13.93;100.00;98346.38;1223455;75;2930011;-69
2023/08/11 01:03:48;;;;;;;0.75;0.70;;;;;;;13.93;100.00;98340.88;1221037;75;2937441;-67
2023/08/11 01:06:31;;;;;;;0.75;0.75;;;;;;;13.83;100.00;98339.50;1221939;75;2928471;-68
2023/08/11 01:09:15;;;;;;;1.30;0.80;;;;;;;13.89;100.00;98337.56;1221970;75;2922120;-70
2023/08/11 01:12:03;;;;;;;2.25;1.00;;;;;;;13.89;100.00;98343.06;1221627;75;2928522;-67
2023/08/11 01:14:44;;;;;;;0.70;0.70;;;;;;;13.91;100.00;98345.34;1222836;75;2931203;-68
2023/08/11 01:17:23;;;;;;;0.80;0.80;;;;;;;13.89;100.00;98336.81;1221043;75;2932645;-69
2023/08/11 01:19:55;;;;;;;1.50;0.90;;;;;;;13.78;100.00;98340.16;1223080;75;2926719;-67
2023/08/11 01:22:31;;;;;;;1.25;0.90;;;;;;;13.58;100.00;98343.66;1220917;75;2934750;-69
2023/08/11 01:25:08;;;;;;;1.00;0.90;;;;;;;13.66;100.00;98342.00;1222771;75;2929497;-68
2023/08/11 01:27:47;;;;;;;1.00;0.90;;;;;;;13.72;100.00;98347.59;1220373;75;2928025;-68
2023/08/11 01:30:19;;;;;;;2.25;0.85;;;;;;;13.43;100.00;98341.69;1222626;75;2932767;-69
2023/08/11 01:32:52;;;;;;;1.60;1.00;;;;;;;13.44;100.00;98339.69;1219126;75;2925498;-67
2023/08/11 01:35:26;;;;;;;0.95;0.95;;;;;;;13.51;100.00;98339.31;1223412;75;2923146;-67
2023/08/11 01:37:59;;;;;;;2.95;1.00;;;;;;;13.37;100.00;98335.38;1221868;75;2925910;-66
2023/08/11 01:40:35;;;;;;;1.50;0.90;;;;;;;13.44;100.00;98342.44;1222498;75;2932983;-68
2023/08/11 01:43:10;;;;;;;1.20;1.10;;;;;;;13.53;100.00;98338.84;1220585;75;2927172;-67
2023/08/11 01:45:44;;;;;;;1.35;0.90;;;;;;;13.36;100.00;98342.09;1222073;75;2932155;-68
2023/08/11 01:48:19;;;;;;;1.05;0.95;;;;;;;13.50;100.00;98335.06;1220678;75;2926141;-66
2023/08/11 01:50:52;;;;;;;1.20;1.10;;;;;;;13.43;100.00;98335.44;1222078;75;2928785;-67
2023/08/11 01:53:25;;;;;;;1.40;1.10;;;;;;;13.41;100.00;98333.16;1219745;75;2921864;-67
2023/08/11 01:56:01;;;;;;;0.95;0.80;;;;;;;13.44;100.00;98331.44;1220433;75;2931799;-67
2023/08/11 01:58:34;;;;;;;0.90;0.90;;;;;;;13.38;100.00;98338.88;1220930;75;2932658;-68
2023/08/11 02:01:07;;;;;;;1.40;0.90;;;;;;;13.21;100.00;98342.09;1222760;75;2918513;-68
2023/08/11 02:03:40;;;;;;;2.15;0.90;;;;;;;13.29;100.00;98334.25;1220343;75;2991804;-67
2023/08/11 02:06:12;;;;;;;0.90;0.90;;;;;;;13.18;100.00;98336.78;1223578;75;2920693;-67
2023/08/11 02:08:46;;;;;;;1.20;1.10;;;;;;;13.11;100.00;98326.97;1221572;75;2933173;-68
2023/08/11 02:11:21;;;;;;;0.80;0.80;;;;;;;13.25;100.00;98330.13;1222459;75;2933712;-67
2023/08/11 02:13:54;;;;;;;1.60;1.30;;;;;;;13.08;100.00;98329.88;1221093;75;2954181;-67
2023/08/11 02:16:26;;;;;;;2.50;1.15;;;;;;;13.18;100.00;98323.03;1222984;75;2936123;-68
2023/08/11 02:18:59;;;;;;;0.75;0.75;;;;;;;12.97;100.00;98325.72;1220991;75;2926211;-68
2023/08/11 02:21:32;;;;;;;1.20;1.00;;;;;;;13.05;100.00;98325.34;1222487;75;2931643;-67
2023/08/11 02:24:05;;;;;;;1.40;0.95;;;;;;;13.03;100.00;98323.06;1206256;75;4120969;-67
2023/08/11 02:26:40;;;;;;;0.80;0.80;;;;;;;12.88;100.00;98325.84;1222057;75;2940244;-70
2023/08/11 02:29:13;;;;;;;1.15;0.80;;;;;;;12.99;100.00;98317.78;1221694;75;2926761;-68
2023/08/11 02:31:47;;;;;;;1.10;0.90;;;;;;;13.06;100.00;98322.13;1221562;75;2995074;-67
2023/08/11 02:34:19;;;;;;;1.15;0.90;;;;;;;12.94;100.00;98328.66;1221023;75;2928194;-69
2023/08/11 02:36:52;;;;;;;0.80;0.80;;;;;;;12.93;100.00;98316.16;1222399;75;2924165;-70
2023/08/11 02:39:25;;;;;;;0.70;0.70;;;;;;;12.96;100.00;98323.44;1222355;75;2923136;-70
2023/08/11 02:42:00;;;;;;;1.10;1.00;;;;;;;13.00;100.00;98324.03;1222080;75;2928284;-67
2023/08/11 02:44:32;;;;;;;1.10;1.00;;;;;;;13.00;100.00;98315.78;1221707;75;2932232;-67
2023/08/11 02:47:05;;;;;;;0.90;0.90;;;;;;;12.94;100.00;98326.69;1223267;75;2929465;-67
2023/08/11 02:49:38;;;;;;;1.00;0.90;;;;;;;12.93;100.00;98321.66;1220859;75;2930943;-67
2023/08/11 02:52:13;;;;;;;1.40;0.85;;;;;;;12.92;100.00;98320.91;1223273;75;2931967;-70
2023/08/11 02:54:49;;;;;;;1.75;0.95;;;;;;;12.82;100.00;98326.97;1221712;75;2931323;-69
2023/08/11 02:57:24;;;;;;;0.85;0.80;;;;;;;12.80;100.00;98324.72;1222452;75;2949066;-68
2023/08/11 02:59:57;;;;;;;0.90;0.90;;;;;;;12.45;100.00;98328.09;1222746;75;2921684;-69
2023/08/11 03:02:29;;;;;;;1.30;1.20;;;;;;;12.55;100.00;98337.00;1220652;75;2940472;-68
2023/08/11 03:05:03;;;;;;;1.30;1.20;;;;;;;12.62;100.00;98333.88;1222226;75;2926905;-68
2023/08/11 03:07:36;;;;;;;1.20;1.10;;;;;;;12.58;100.00;98330.59;1220267;75;2926503;-69
2023/08/11 03:10:11;;;;;;;0.80;0.80;;;;;;;12.61;100.00;98331.63;1223307;75;2932432;-66
2023/08/11 03:12:47;;;;;;;1.15;1.05;;;;;;;12.53;100.00;98329.25;1221818;75;2921487;-68
2023/08/11 03:15:20;;;;;;;1.05;0.90;;;;;;;12.65;100.00;98324.72;1222765;75;2934051;-68
2023/08/11 03:17:52;;;;;;;0.85;0.85;;;;;;;12.55;100.00;98326.00;1222163;75;2925322;-69
2023/08/11 03:20:25;;;;;;;1.10;1.00;;;;;;;12.57;100.00;98326.31;1223328;75;2925846;-67
2023/08/11 03:22:58;;;;;;;0.95;0.75;;;;;;;12.57;100.00;98331.78;1220418;75;2926472;-67
2023/08/11 03:25:30;;;;;;;1.10;1.00;;;;;;;12.47;100.00;98335.88;1223107;75;2924661;-69
2023/08/11 03:28:06;;;;;;;0.75;0.75;;;;;;;12.45;100.00;98336.31;1222432;75;2924044;-67
2023/08/11 03:30:39;;;;;;;0.90;0.90;;;;;;;12.49;100.00;98331.41;1223125;75;2926814;-68
2023/08/11 03:33:11;;;;;;;1.15;0.80;;;;;;;12.49;100.00;98339.66;1219338;75;2955213;-69
2023/08/11 03:35:44;;;;;;;1.00;0.90;;;;;;;12.40;100.00;98331.50;1223328;75;2928836;-68
2023/08/11 03:38:17;;;;;;;0.70;0.70;;;;;;;12.31;100.00;98339.81;1221119;75;2934365;-67
2023/08/11 03:40:50;;;;;;;1.00;0.90;;;;;;;12.38;100.00;98333.19;1220591;75;3007512;-70
2023/08/11 03:43:25;;;;;;;1.10;1.00;;;;;;;12.32;100.00;98336.59;1220032;75;2918734;-68
2023/08/11 03:45:58;;;;;;;0.80;0.80;;;;;;;12.40;100.00;98338.97;1222129;75;2928853;-68
2023/08/11 03:48:30;;;;;;;1.10;1.00;;;;;;;12.47;100.00;98335.88;1220183;75;2927486;-69
2023/08/11 03:51:04;;;;;;;1.20;1.00;;;;;;;12.15;100.00;98341.78;1223607;75;2924989;-68
2023/08/11 03:53:37;;;;;;;1.20;1.10;;;;;;;12.29;100.00;98340.31;1221041;75;2930064;-67
2023/08/11 03:56:09;;;;;;;1.10;1.00;;;;;;;12.28;100.00;98343.50;1222781;75;2928936;-67
2023/08/11 03:58:45;;;;;;;2.05;1.20;;;;;;;12.32;100.00;98341.34;1219797;75;2926353;-69
2023/08/11 04:01:17;;;;;;;1.40;1.20;;;;;;;12.34;100.00;98349.88;1222359;75;2931353;-67
2023/08/11 04:03:50;;;;;;;1.20;1.10;;;;;;;12.41;100.00;98351.47;1220198;75;2946731;-68
2023/08/11 04:06:23;;;;;;;2.05;1.40;;;;;;;12.37;100.00;98351.66;1221783;75;2937619;-67
2023/08/11 04:08:55;;;;;;;3.65;2.20;;;;;;;12.28;100.00;98355.22;1221796;75;2923614;-68
2023/08/11 04:11:28;;;;;;;4.75;2.00;;;;;;;12.33;100.00;98360.06;1222400;75;2923742;-69
2023/08/11 04:14:03;;;;;;;1.40;1.30;;;;;;;12.51;100.00;98363.91;1219899;75;2926057;-68
2023/08/11 04:16:36;;;;;;;2.10;1.20;;;;;;;12.54;100.00;98368.47;1222000;75;2926063;-66
2023/08/11 04:19:09;;;;;;;2.25;1.50;;;;;;;12.44;100.00;98367.03;1220233;75;2922535;-67
2023/08/11 04:21:42;;;;;;;1.55;1.40;;;;;;;12.39;100.00;98373.16;1222422;75;2931229;-67
2023/08/11 04:24:15;;;;;;;1.90;1.50;;;;;;;12.44;100.00;98375.25;1222642;75;2933029;-67
2023/08/11 04:26:48;;;;;;;1.95;1.65;;;;;;;12.51;100.00;98374.91;1221525;75;2932267;-69
2023/08/11 04:29:23;;;;;;;2.60;2.00;;;;;;;12.54;100.00;98376.69;1219962;75;2937027;-67
2023/08/11 04:31:56;;;;;;;2.60;2.10;;;;;;;12.55;100.00;98372.69;1222782;75;2932108;-68
2023/08/11 04:34:28;;;;;;;2.20;1.75;;;;;;;12.60;100.00;98377.53;1220634;75;2937105;-67
2023/08/11 04:37:01;;;;;;;2.10;1.90;;;;;;;12.63;100.00;98375.84;1222239;75;2922499;-67
2023/08/11 04:39:35;;;;;;;2.05;1.85;;;;;;;12.62;100.00;98383.31;1220916;75;2933443;-68
2023/08/11 04:42:09;;;;;;;4.90;4.30;;;;;;;12.66;100.00;98383.16;1220121;75;2922916;-70
2023/08/11 04:44:44;;;;;;;3.90;3.50;;;;;;;12.60;100.00;98379.53;1218902;75;2928471;-66
2023/08/11 04:47:17;;;;;;;5.20;4.40;;;;;;;12.70;100.00;98379.00;1221740;75;2927192;-67
2023/08/11 04:49:50;;;;;;;3.60;3.10;;;;;;;12.75;100.00;98381.06;1222249;75;2923849;-69
2023/08/11 04:52:23;;;;;;;10.25;8.65;;;;;;;12.79;100.00;98383.63;1222328;75;2933594;-65
2023/08/11 04:54:55;;;;;;;7.65;6.20;;;;;;;12.86;100.00;98380.50;1221008;75;2925751;-67
2023/08/11 04:57:28;;;;;;;4.80;4.20;;;;;;;12.90;100.00;98378.34;1223014;75;2924939;-68
2023/08/11 05:00:04;;;;;;;3.85;3.10;;;;;;;12.87;100.00;98384.00;1221602;75;2925233;-70
2023/08/11 05:02:38;;;;;;;2.10;1.90;;;;;;;12.78;100.00;98391.13;1222805;75;2926429;-68
2023/08/11 05:05:12;;;;;;;2.35;1.80;;;;;;;13.04;100.00;98389.81;1221107;75;2924554;-67
2023/08/11 05:07:44;;;;;;;1.95;1.35;;;;;;;13.20;100.00;98381.06;1223015;75;2940726;-69
2023/08/11 05:10:17;;;;;;;1.45;1.35;;;;;;;13.25;100.00;98385.88;1220847;75;2923220;-70
2023/08/11 05:12:51;;;;;;;1.50;1.25;;;;;;;13.33;100.00;98391.81;1222385;75;2930765;-68
2023/08/11 05:15:26;;;;;;;2.45;2.05;;;;;;;13.28;100.00;98395.22;1219918;75;2924904;-69
2023/08/11 05:17:59;;;;;;;2.15;1.90;;;;;;;13.45;100.00;98388.00;1221978;75;2931712;-68
2023/08/11 05:20:32;;;;;;;2.95;2.35;;;;;;;13.49;100.00;98390.53;1220735;75;2931583;-67
2023/08/11 05:23:05;;;;;;;4.10;2.95;;;;;;;13.57;100.00;98397.91;1222284;75;2928129;-68
2023/08/11 05:25:37;;;;;;;3.95;3.10;;;;;;;13.69;100.00;98396.09;1221220;75;2925060;-68
2023/08/11 05:28:10;;;;;;;3.45;2.85;;;;;;;13.82;100.00;98404.00;1222094;75;2926228;-70
2023/08/11 05:30:45;;;;;;;4.25;3.55;;;;;;;13.93;100.00;98397.91;1219600;75;2928407;-69
2023/08/11 05:33:18;;;;;;;9.25;3.30;;;;;;;14.01;100.00;98401.78;1221282;75;2927050;-67
2023/08/11 05:35:50;;;;;;;4.65;2.80;;;;;;;14.08;100.00;98412.38;1221876;75;2924081;-67
2023/08/11 05:38:25;;;;;;;3.75;2.85;;;;;;;14.18;100.00;98407.50;1221933;75;2924577;-67
2023/08/11 05:40:58;;;;;;;4.95;2.80;;;;;;;14.37;100.00;98413.47;1222943;75;2923207;-66
2023/08/11 05:43:31;;;;;;;4.60;2.80;;;;;;;14.44;100.00;98413.06;1221474;75;2924134;-69
2023/08/11 05:46:07;;;;;;;4.00;2.90;;;;;;;14.51;100.00;98422.91;1221571;75;2931908;-69
2023/08/11 05:48:40;;;;;;;4.65;2.80;;;;;;;14.51;100.00;98415.41;1221932;75;2927321;-70
2023/08/11 05:51:13;;;;;;;4.10;3.10;;;;;;;14.63;100.00;98413.56;1223277;75;2922362;-70
2023/08/11 05:53:46;;;;;;;5.80;2.85;;;;;;;14.69;100.00;98419.88;1222134;75;2925250;-68
2023/08/11 05:56:19;;;;;;;4.40;3.10;;;;;;;14.86;100.00;98409.78;1220971;75;3000777;-68
2023/08/11 05:58:52;;;;;;;3.95;3.15;;;;;;;14.89;100.00;98411.56;1221183;75;2929322;-67
2023/08/11 06:01:27;;;;;;;3.75;2.90;;;;;;;15.10;100.00;98419.75;1222893;75;2926349;-70
2023/08/11 06:03:59;;;;;;;4.00;3.05;;;;;;;15.05;100.00;98415.72;1221456;75;2929309;-70
2023/08/11 06:06:32;;;;;;;6.30;2.90;;;;;;;15.13;100.00;98416.81;1221357;75;2925250;-71
2023/08/11 06:09:05;;;;;;;3.95;3.05;;;;;;;15.29;100.00;98417.41;1222415;75;2919065;-71
2023/08/11 06:11:38;;;;;;;3.20;2.55;;;;;;;15.40;100.00;98420.28;1222628;75;2930315;-69
2023/08/11 06:14:10;;;;;;;3.55;2.30;;;;;;;15.50;100.00;98412.56;1221494;75;2928574;-68
2023/08/11 06:16:46;;;;;;;5.65;2.60;;;;;;;15.72;100.00;98417.50;1222002;75;2922769;-69
2023/08/11 06:19:19;;;;;;;4.15;2.65;;;;;;;15.97;100.00;98415.91;1221560;75;2923231;-69
2023/08/11 06:21:52;;;;;;;3.05;2.30;;;;;;;16.11;100.00;98416.97;1223475;75;2927482;-70
2023/08/11 06:24:24;;;;;;;3.00;2.30;;;;;;;16.27;100.00;98423.84;1220343;75;2926754;-69
2023/08/11 06:26:57;;;;;;;2.25;2.00;;;;;;;16.26;100.00;98422.31;1222718;75;2931606;-69
2023/08/11 06:29:30;;;;;;;2.60;1.85;;;;;;;16.45;100.00;98420.66;1221263;75;2931412;-70
2023/08/11 06:32:05;;;;;;;3.25;2.50;;;;;;;16.49;100.00;98425.94;1223239;75;2932665;-70
2023/08/11 06:34:38;;;;;;;3.00;2.20;;;;;;;16.78;100.00;98428.28;1221377;75;2922963;-69
2023/08/11 06:37:10;;;;;;;4.65;2.35;;;;;;;16.74;100.00;98424.22;1223168;75;2932004;-68
2023/08/11 06:39:43;;;;;;;1.60;1.50;;;;;;;16.98;100.00;98432.88;1222034;75;2928305;-70
2023/08/11 06:42:16;;;;;;;2.70;1.70;;;;;;;17.08;100.00;98429.84;1222357;75;2932165;-68
2023/08/11 06:44:48;;;;;;;1.70;1.40;;;;;;;17.28;100.00;98429.63;1221490;75;2924951;-69
2023/08/11 06:47:23;;;;;;;2.00;1.55;;;;;;;17.42;99.99;98428.63;1223762;75;2925589;-69
2023/08/11 06:49:56;;;;;;;2.05;1.50;;;;;;;17.41;97.78;98434.66;1222060;75;2931890;-70
2023/08/11 06:52:29;;;;;;;1.70;1.50;;;;;;;17.65;96.79;98425.84;1217994;75;3158186;-70
2023/08/11 06:55:03;;;;;;;2.75;2.00;;;;;;;17.55;95.05;98435.66;1220972;75;2925338;-70
2023/08/11 06:57:35;;;;;;;1.90;1.50;;;;;;;17.80;88.17;98437.44;1223410;75;2925616;-71
2023/08/11 07:00:10;;;;;;;1.70;1.60;;;;;;;18.05;87.35;98438.38;1220840;75;2923762;-70
2023/08/11 07:02:45;;;;;;;2.55;2.00;;;;;;;17.96;85.37;98435.13;1221457;75;2924013;-72
2023/08/11 07:05:18;;;;;;;1.35;1.20;;;;;;;18.31;84.49;98443.59;1221213;75;2922884;-69
2023/08/11 07:07:50;;;;;;;1.75;1.45;;;;;;;18.46;82.39;98443.28;1223730;75;2929308;-70
2023/08/11 07:10:23;;;;;;;2.10;1.60;;;;;;;18.49;82.71;98442.25;1221387;75;2922783;-71
2023/08/11 07:12:55;;;;;;;1.90;1.40;;;;;;;18.59;81.92;98439.19;1222364;75;2934623;-71
2023/08/11 07:15:31;;;;;;;1.50;1.10;;;;;;;18.73;80.80;98440.88;1222039;75;2847359;-70
2023/08/11 07:18:06;;;;;;;1.75;1.45;;;;;;;18.87;82.43;98442.59;1223732;75;2920787;-70
2023/08/11 07:20:43;;;;;;;3.05;1.55;;;;;;;19.03;82.47;98446.53;1220875;75;2922363;-71
2023/08/11 07:23:16;;;;;;;2.90;1.80;;;;;;;19.00;80.84;98442.03;1222008;75;2921250;-69
2023/08/11 07:25:48;;;;;;;1.45;1.35;;;;;;;19.16;79.12;98448.72;1220660;75;2922192;-70
2023/08/11 07:28:21;;;;;;;1.55;1.40;;;;;;;19.36;77.04;98447.56;1222954;75;2924181;-69
2023/08/11 07:30:54;;;;;;;2.20;1.45;;;;;;;19.54;74.96;98448.94;1221428;75;2920099;-71
2023/08/11 07:33:29;;;;;;;1.60;1.35;;;;;;;19.61;76.79;98451.16;1222531;75;2926522;-71
2023/08/11 07:36:02;;;;;;;4.95;2.00;;;;;;;19.72;75.00;98451.09;1219876;75;2921000;-71
2023/08/11 07:38:34;;;;;;;3.25;1.85;;;;;;;19.94;75.61;98452.91;1222507;75;2929912;-70
2023/08/11 07:41:07;;;;;;;2.30;1.70;;;;;;;19.77;73.68;98449.50;1220726;75;2923130;-69
2023/08/11 07:43:40;;;;;;;2.95;1.85;;;;;;;20.05;72.25;98445.72;1221952;75;2942420;-70
2023/08/11 07:46:12;;;;;;;3.00;1.70;;;;;;;20.09;72.07;98448.97;1219443;75;2923760;-69
2023/08/11 07:48:47;;;;;;;1.60;1.30;;;;;;;20.24;71.71;98442.97;1223701;75;2923597;-70
2023/08/11 07:51:20;;;;;;;2.40;1.55;;;;;;;20.49;73.34;98444.44;1219936;75;2921631;-72
2023/08/11 07:53:53;;;;;;;3.60;2.30;;;;;;;20.54;70.99;98446.41;1223572;75;2921248;-70
2023/08/11 07:56:26;;;;;;;2.30;1.65;;;;;;;20.75;69.13;98443.13;1220500;75;2923948;-69
2023/08/11 07:58:58;;;;;;;2.20;1.40;;;;;;;21.22;67.97;98449.03;1222652;75;2929767;-69
2023/08/11 08:01:31;;;;;;;1.90;1.60;;;;;;;21.25;68.67;98438.88;1220290;75;2993682;-71
2023/08/11 08:04:07;;;;;;;3.10;2.00;;;;;;;21.03;69.60;98456.66;1223030;75;2929171;-71
2023/08/11 08:06:46;;;;;;;2.10;1.60;;;;;;;21.14;69.98;98448.16;1221895;75;2926282;-70
2023/08/11 08:09:19;;;;;;;2.15;1.85;;;;;;;21.09;69.66;98457.31;1222710;75;2923295;-70
2023/08/11 08:11:51;;;;;;;3.95;1.65;;;;;;;21.44;69.80;98452.78;1220525;75;2923427;-71
2023/08/11 08:14:24;;;;;;;2.60;1.60;;;;;;;21.43;68.70;98445.69;1222555;75;2922251;-70
2023/08/11 08:16:58;;;;;;;2.65;1.90;;;;;;;21.52;69.52;98442.50;1220861;75;2923707;-71
2023/08/11 08:19:33;;;;;;;4.05;1.90;;;;;;;21.67;71.23;98442.75;1223448;75;2927446;-71
2023/08/11 08:22:06;;;;;;;2.20;1.75;;;;;;;21.96;68.44;98443.03;1218538;75;2919577;-69
2023/08/11 08:24:38;;;;;;;2.30;1.65;;;;;;;21.88;68.46;98442.13;1221936;75;2922350;-72
2023/08/11 08:27:11;;;;;;;2.35;1.70;;;;;;;21.49;67.49;98451.94;1221350;75;2930080;-74
2023/08/11 08:29:44;;;;;;;2.35;1.70;;;;;;;22.20;65.26;98446.88;1222572;75;2924665;-71
2023/08/11 08:32:16;;;;;;;3.40;1.90;;;;;;;22.13;63.93;98449.03;1220004;75;2918487;-70
2023/08/11 08:34:52;;;;;;;3.90;1.75;;;;;;;22.23;63.70;98445.84;1222836;75;2927981;-70
2023/08/11 08:37:24;;;;;;;1.70;1.35;;;;;;;22.10;63.88;98446.53;1222499;75;2923908;-70
2023/08/11 08:39:57;;;;;;;3.55;1.70;;;;;;;22.29;60.33;98447.22;1222603;75;2919257;-72
2023/08/11 08:42:30;;;;;;;2.05;1.40;;;;;;;22.61;61.80;98446.34;1219146;75;2926239;-69
2023/08/11 08:45:03;;;;;;;3.40;1.60;;;;;;;22.75;62.10;98444.25;1222192;75;2924571;-69
2023/08/11 08:47:37;;;;;;;2.20;1.50;;;;;;;23.09;59.81;98447.09;1219730;75;2927771;-69
2023/08/11 08:50:14;;;;;;;2.50;1.80;;;;;;;22.75;60.15;98449.81;1222721;75;2919972;-71
2023/08/11 08:52:46;;;;;;;2.20;1.80;;;;;;;22.68;58.38;98448.47;1219639;75;2922035;-70
2023/08/11 08:55:19;;;;;;;2.55;1.80;;;;;;;22.63;60.91;98446.53;1217329;75;3235262;-72
2023/08/11 08:57:53;;;;;;;2.45;1.80;;;;;;;22.88;62.51;98444.22;1220184;75;2926282;-68
2023/08/11 09:00:26;;;;;;;2.25;1.70;;;;;;;22.90;60.71;98438.84;1222849;75;2920622;-70
2023/08/11 09:03:01;;;;;;;2.40;1.70;;;;;;;23.13;61.50;98441.16;1221005;75;2936151;-70
2023/08/11 09:05:37;;;;;;;2.30;1.60;;;;;;;23.58;61.71;98438.03;1222880;75;2919774;-71
2023/08/11 09:08:10;;;;;;;3.05;1.90;;;;;;;23.29;60.07;98436.47;1221766;75;2921592;-72
2023/08/11 09:10:42;;;;;;;2.55;1.50;;;;;;;22.95;59.59;98435.19;1223388;75;2920882;-69
2023/08/11 09:13:15;;;;;;;2.00;1.40;;;;;;;23.37;60.42;98426.84;1220447;75;2922102;-70
2023/08/11 09:15:48;;;;;;;2.25;1.70;;;;;;;23.58;58.36;98438.03;1222074;75;2925539;-70
2023/08/11 09:18:21;;;;;;;3.10;1.40;;;;;;;23.78;56.08;98433.72;1220833;75;2935659;-70
2023/08/11 09:20:56;;;;;;;1.90;1.20;;;;;;;23.62;50.67;98434.91;1223431;75;2924773;-70
2023/08/11 09:23:29;;;;;;;1.70;1.10;;;;;;;24.07;50.08;98432.97;1219972;75;2943571;-70
2023/08/11 09:26:01;;;;;;;2.70;1.55;;;;;;;23.93;54.19;98427.50;1222643;75;2925000;-72
2023/08/11 09:28:34;;;;;;;3.45;1.35;;;;;;;23.85;55.32;98423.16;1219443;75;2922835;-68
2023/08/11 09:31:07;;;;;;;2.75;1.45;;;;;;;24.15;54.61;98433.75;1189506;75;5564526;-68
2023/08/11 09:33:40;;;;;;;1.95;1.30;;;;;;;24.84;53.94;98425.69;1221585;75;2923539;-71
2023/08/11 09:36:17;;;;;;;1.75;1.30;;;;;;;25.13;53.97;98425.56;1222875;75;2926122;-70
2023/08/11 09:38:51;;;;;;;1.40;1.20;;;;;;;24.36;51.48;98426.03;1220959;75;2924395;-71
2023/08/11 09:41:23;;;;;;;2.60;1.35;;;;;;;24.60;51.87;98430.47;1222263;75;2921616;-68
2023/08/11 09:43:56;;;;;;;2.00;1.30;;;;;;;24.53;51.97;98419.25;1220064;75;2931486;-69
2023/08/11 09:46:29;;;;;;;2.35;1.60;;;;;;;23.93;53.56;98421.16;1222743;75;2928421;-70
2023/08/11 09:49:01;;;;;;;1.60;1.20;;;;;;;24.14;52.97;98421.84;1220772;75;2926269;-69
2023/08/11 09:51:38;;;;;;;3.75;1.30;;;;;;;24.27;52.53;98418.19;1222631;75;2930573;-70
2023/08/11 09:54:13;;;;;;;2.70;1.40;;;;;;;24.29;52.50;98421.16;1220458;75;2930415;-70
2023/08/11 09:56:47;;;;;;;2.05;1.40;;;;;;;24.72;50.79;98411.28;1220204;75;2927243;-70
2023/08/11 09:59:24;;;;;;;1.15;1.05;;;;;;;25.12;49.29;98410.81;1218577;67;3029292;-68
2023/08/11 10:02:00;;;;;;;0.75;0.75;;;;;;;25.01;49.00;98402.78;1223218;75;2929306;-70
2023/08/11 10:04:40;;;;;;;2.20;1.50;;;;;;;25.48;49.80;98405.09;1219910;75;3021082;-70
2023/08/11 10:07:20;;;;;;;2.45;1.60;;;;;;;25.19;47.21;98403.78;1224311;75;2923109;-70
2023/08/11 10:09:54;;;;;;;3.20;1.20;;;;;;;25.18;46.56;98408.59;1221668;75;2923034;-71
2023/08/11 10:12:28;;;;;;;1.55;1.35;;;;;;;25.65;45.85;98400.97;1223063;75;2924119;-71
2023/08/11 10:15:02;;;;;;;1.70;1.30;;;;;;;25.05;48.29;98398.28;1222792;75;2924895;-71
2023/08/11 10:17:34;;;;;;;1.85;1.20;;;;;;;25.25;46.77;98405.06;1223744;75;2928880;-68
2023/08/11 10:20:09;;;;;;;4.65;1.85;;;;;;;25.15;47.55;98403.34;1218924;75;3064079;-71
2023/08/11 10:22:45;;;;;;;1.75;1.05;;;;;;;25.56;46.70;98393.84;1223717;75;2919276;-68
2023/08/11 10:25:18;;;;;;;1.10;0.95;;;;;;;25.67;47.44;98389.94;1222353;75;2923999;-69
2023/08/11 10:27:51;;;;;;;1.20;1.05;;;;;;;25.91;47.19;98394.97;1223911;75;2917571;-70
2023/08/11 10:30:25;;;;;;;1.00;0.90;;;;;;;26.09;46.50;98390.22;1221035;75;2929967;-71
2023/08/11 10:33:07;;;;;;;1.70;1.10;;;;;;;27.25;44.17;98395.31;1223435;75;2926598;-69
2023/08/11 10:35:54;;;;;;;1.25;0.95;;;;;;;27.16;47.28;98393.88;1222274;75;2922364;-68
2023/08/11 10:38:33;;;;;;;1.70;1.20;;;;;;;26.34;46.29;98395.97;1224344;75;2917640;-72
2023/08/11 10:41:08;;;;;;;1.95;1.35;;;;;;;26.28;47.51;98398.22;1222192;75;2921048;-71
2023/08/11 10:43:43;;;;;;;1.85;1.45;;;;;;;26.45;45.32;98394.03;1223384;75;2927675;-70
2023/08/11 10:46:25;;;;;;;1.90;1.05;;;;;;;26.30;45.51;98398.41;1221815;75;2921294;-70
2023/08/11 10:49:02;;;;;;;1.80;1.30;;;;;;;26.95;46.02;98392.13;1223282;75;2922434;-71
2023/08/11 10:51:37;;;;;;;2.30;0.95;;;;;;;27.36;44.61;98389.97;1221330;75;2922226;-69
2023/08/11 10:54:25;;;;;;;1.75;1.30;;;;;;;26.83;43.57;98391.06;1223773;75;2923425;-71
2023/08/11 10:57:02;;;;;;;2.00;1.30;;;;;;;26.60;44.99;98393.25;1221468;75;2923711;-72
2023/08/11 10:59:37;;;;;;;1.75;1.30;;;;;;;27.09;44.18;98391.84;1222486;75;2924623;-70
2023/08/11 11:02:12;;;;;;;2.10;1.20;;;;;;;26.97;44.21;98392.28;1220689;75;2923373;-71
2023/08/11 11:04:45;;;;;;;1.45;1.20;;;;;;;26.96;44.41;98396.44;1224291;75;2921295;-71
2023/08/11 11:07:18;;;;;;;2.55;1.20;;;;;;;26.52;43.76;98390.47;1221878;75;2923830;-70
2023/08/11 11:09:54;;;;;;;3.15;1.20;;;;;;;26.88;43.63;98390.09;1224036;75;2923243;-71
2023/08/11 11:12:27;;;;;;;1.85;1.10;;;;;;;27.51;42.12;98388.38;1221673;75;2928991;-69
2023/08/11 11:15:00;;;;;;;1.75;0.70;;;;;;;28.66;41.70;98387.88;1223587;75;2917714;-69
2023/08/11 11:17:32;;;;;;;1.60;1.00;;;;;;;28.31;42.65;98386.44;1222110;75;2924091;-70
2023/08/11 11:20:06;;;;;;;1.15;1.00;;;;;;;27.82;43.67;98389.59;1223833;75;2929491;-67
2023/08/11 11:22:41;;;;;;;0.90;0.90;;;;;;;27.86;42.12;98382.81;1221382;75;2922401;-69
2023/08/11 11:25:16;;;;;;;1.55;1.00;;;;;;;27.97;43.41;98382.31;1223347;75;2920259;-72
2023/08/11 11:27:49;;;;;;;1.40;1.10;;;;;;;27.14;43.16;98382.44;1220947;75;2921082;-71
2023/08/11 11:30:21;;;;;;;1.75;1.20;;;;;;;27.43;42.52;98382.06;1223329;75;2926327;-72
2023/08/11 11:32:54;;;;;;;1.40;1.15;;;;;;;26.91;42.51;98386.16;1220439;75;2922243;-71
2023/08/11 11:35:27;;;;;;;1.20;1.05;;;;;;;27.07;41.40;98386.06;1222936;75;2924308;-67
2023/08/11 11:38:00;;;;;;;1.60;1.10;;;;;;;27.19;43.05;98382.25;1221453;75;2933976;-72
2023/08/11 11:40:38;;;;;;;1.85;1.10;;;;;;;27.39;41.44;98385.28;1223261;75;2927044;-70
2023/08/11 11:43:11;;;;;;;1.75;1.10;;;;;;;27.88;42.89;98378.09;1221054;75;2925744;-69